Time;durP1;ratioP1;P1;durP2;ratioP2;P2;SDS_P1;SDS_P2;PMS_P1;PMS_P2;Temp;Humidity;BMP_temperature;BMP_pressure;BME280_temperature;BME280_humidity;BME280_pressure;Samples;Min_cycle;Max_cycle;Signal;HPM_P1;HPM_P2
2023/05/31 00:00:43;;;;;;;15.97;8.53;;;;;;;;;;5114695;28;20285;-76
2023/05/31 00:03:11;;;;;;;17.67;9.60;;;;;;;;;;5114561;28;20284;-77
2023/05/31 00:05:39;;;;;;;18.30;9.90;;;;;;;;;;5113686;28;20607;-77
2023/05/31 00:08:06;;;;;;;16.43;8.93;;;;;;;;;;5114214;28;20284;-77
2023/05/31 00:10:33;;;;;;;16.93;8.93;;;;;;;;;;5114870;28;20205;-77
2023/05/31 00:13:00;;;;;;;14.20;8.60;;;;;;;;;;5114477;28;20233;-77
2023/05/31 00:15:28;;;;;;;14.37;9.07;;;;;;;;;;5114152;28;20285;-78
2023/05/31 00:17:55;;;;;;;15.97;9.23;;;;;;;;;;5114139;28;20228;-77
2023/05/31 00:20:23;;;;;;;17.40;9.87;;;;;;;;;;5113559;28;20300;-76
2023/05/31 00:22:50;;;;;;;16.80;9.53;;;;;;;;;;5114148;28;20225;-76
2023/05/31 00:25:18;;;;;;;14.73;10.03;;;;;;;;;;5113830;28;20291;-77
2023/05/31 00:27:48;;;;;;;15.97;9.53;;;;;;;;;;5114081;28;20292;-77
2023/05/31 00:30:15;;;;;;;17.97;9.93;;;;;;;;;;5114177;28;20197;-77
2023/05/31 00:32:42;;;;;;;17.20;9.93;;;;;;;;;;5113787;28;20280;-77
2023/05/31 00:35:10;;;;;;;13.17;9.57;;;;;;;;;;5113301;28;20320;-77
2023/05/31 00:37:38;;;;;;;17.30;9.70;;;;;;;;;;5113423;28;20320;-76
2023/05/31 00:40:06;;;;;;;16.10;10.27;;;;;;;;;;5113648;28;20745;-77
2023/05/31 00:42:34;;;;;;;14.87;10.17;;;;;;;;;;5113799;28;20204;-77
2023/05/31 00:45:02;;;;;;;15.97;9.77;;;;;;;;;;5113648;28;20232;-77
2023/05/31 00:47:30;;;;;;;14.00;9.83;;;;;;;;;;5113397;28;20243;-78
2023/05/31 00:49:57;;;;;;;15.00;9.10;;;;;;;;;;5112634;28;20612;-77
2023/05/31 00:52:25;;;;;;;13.67;9.47;;;;;;;;;;5113083;28;20205;-77
2023/05/31 00:54:53;;;;;;;16.07;9.60;;;;;;;;;;5113550;28;20316;-77
2023/05/31 00:57:20;;;;;;;13.93;9.70;;;;;;;;;;5113365;28;20329;-77
2023/05/31 00:59:48;;;;;;;14.27;9.47;;;;;;;;;;5113329;27;20910;-78
2023/05/31 01:02:17;;;;;;;14.73;10.20;;;;;;;;;;5113293;28;20314;-78
2023/05/31 01:04:44;;;;;;;14.07;9.83;;;;;;;;;;5112778;28;20284;-77
2023/05/31 01:07:12;;;;;;;14.03;9.90;;;;;;;;;;5113362;28;20322;-79
2023/05/31 01:09:42;;;;;;;14.83;10.03;;;;;;;;;;5112992;28;20293;-77
2023/05/31 01:12:15;;;;;;;17.83;9.23;;;;;;;;;;5113064;28;20194;-78
2023/05/31 01:14:47;;;;;;;15.73;10.23;;;;;;;;;;5112605;28;20208;-77
2023/05/31 01:17:22;;;;;;;14.23;9.43;;;;;;;;;;5113165;28;20328;-78
2023/05/31 01:19:53;;;;;;;18.17;10.87;;;;;;;;;;5112637;28;20222;-77
2023/05/31 01:22:35;;;;;;;14.57;10.77;;;;;;;;;;5112804;28;20332;-78
2023/05/31 01:25:15;;;;;;;15.77;10.73;;;;;;;;;;5113033;27;20288;-77
2023/05/31 01:27:44;;;;;;;17.53;10.93;;;;;;;;;;5113169;28;20207;-77
2023/05/31 01:30:11;;;;;;;17.20;10.87;;;;;;;;;;5112502;28;20961;-77
2023/05/31 01:32:39;;;;;;;15.17;11.27;;;;;;;;;;5112595;28;20193;-78
2023/05/31 01:35:06;;;;;;;17.70;10.77;;;;;;;;;;5112475;28;20268;-78
2023/05/31 01:37:34;;;;;;;14.53;10.67;;;;;;;;;;5112415;28;20320;-78
2023/05/31 01:40:01;;;;;;;17.57;11.57;;;;;;;;;;5112675;28;20200;-78
2023/05/31 01:42:29;;;;;;;16.97;11.37;;;;;;;;;;5112645;28;20576;-78
2023/05/31 01:44:58;;;;;;;16.30;11.03;;;;;;;;;;5111724;28;20285;-78
2023/05/31 01:47:25;;;;;;;20.13;11.37;;;;;;;;;;5102825;28;20298;-76
2023/05/31 01:49:53;;;;;;;15.67;11.33;;;;;;;;;;5092148;28;20279;-77
2023/05/31 01:52:21;;;;;;;14.63;10.77;;;;;;;;;;5091865;28;20190;-78
2023/05/31 01:54:48;;;;;;;17.43;12.10;;;;;;;;;;5091688;28;20194;-78
2023/05/31 01:57:16;;;;;;;19.67;12.83;;;;;;;;;;5091808;28;20231;-78
2023/05/31 01:59:44;;;;;;;18.17;12.30;;;;;;;;;;5092047;28;20658;-79
2023/05/31 02:02:13;;;;;;;17.33;11.90;;;;;;;;;;5091362;28;20258;-77
2023/05/31 02:04:40;;;;;;;16.67;12.03;;;;;;;;;;5091858;28;20192;-77
2023/05/31 02:07:09;;;;;;;21.33;12.83;;;;;;;;;;5091623;28;20281;-76
2023/05/31 02:09:36;;;;;;;21.03;13.23;;;;;;;;;;5091653;28;20196;-77
2023/05/31 02:12:03;;;;;;;20.47;13.87;;;;;;;;;;5091577;28;20198;-78
2023/05/31 02:14:30;;;;;;;20.50;14.37;;;;;;;;;;5098126;28;20232;-78
2023/05/31 02:16:58;;;;;;;18.17;12.93;;;;;;;;;;5111309;28;20320;-76
2023/05/31 02:19:28;;;;;;;19.97;14.63;;;;;;;;;;5111803;28;20291;-77
2023/05/31 02:21:55;;;;;;;19.80;14.07;;;;;;;;;;5112302;28;20232;-77
2023/05/31 02:24:23;;;;;;;19.80;13.93;;;;;;;;;;5111863;28;20225;-78
2023/05/31 02:26:50;;;;;;;22.83;15.13;;;;;;;;;;5111677;28;20290;-77
2023/05/31 02:29:17;;;;;;;19.60;14.33;;;;;;;;;;5111732;28;20227;-77
2023/05/31 02:31:44;;;;;;;25.33;15.90;;;;;;;;;;5111584;28;20205;-78
2023/05/31 02:34:12;;;;;;;26.10;16.20;;;;;;;;;;5111568;28;20327;-77
2023/05/31 02:36:40;;;;;;;22.87;15.80;;;;;;;;;;5111464;28;20225;-78
2023/05/31 02:39:07;;;;;;;21.53;16.23;;;;;;;;;;5111848;28;20745;-77
2023/05/31 02:41:35;;;;;;;24.30;15.80;;;;;;;;;;5111508;28;20678;-78
2023/05/31 02:44:02;;;;;;;24.20;15.47;;;;;;;;;;5111878;28;20288;-78
2023/05/31 02:46:29;;;;;;;24.00;16.00;;;;;;;;;;5111452;28;20201;-77
2023/05/31 02:48:56;;;;;;;25.90;16.63;;;;;;;;;;5111401;28;20190;-77
2023/05/31 02:51:23;;;;;;;26.03;17.87;;;;;;;;;;5111597;28;20223;-76
2023/05/31 02:53:52;;;;;;;28.60;17.53;;;;;;;;;;5111709;28;20239;-77
2023/05/31 02:56:19;;;;;;;22.87;17.37;;;;;;;;;;5112759;28;20215;-77
2023/05/31 02:58:47;;;;;;;25.47;17.57;;;;;;;;;;5115910;28;20200;-77
2023/05/31 03:01:14;;;;;;;23.67;18.50;;;;;;;;;;5115042;28;20641;-77
2023/05/31 03:03:42;;;;;;;25.83;18.20;;;;;;;;;;5115979;28;20198;-78
2023/05/31 03:06:09;;;;;;;28.30;18.13;;;;;;;;;;5115351;28;20657;-77
2023/05/31 03:08:36;;;;;;;28.23;18.67;;;;;;;;;;5115308;28;20221;-77
2023/05/31 03:11:04;;;;;;;25.93;18.43;;;;;;;;;;5115671;28;20654;-77
2023/05/31 03:13:31;;;;;;;25.77;18.53;;;;;;;;;;5115320;28;20232;-77
2023/05/31 03:15:59;;;;;;;29.37;19.53;;;;;;;;;;5114823;28;20206;-77
2023/05/31 03:18:26;;;;;;;26.00;18.43;;;;;;;;;;5115171;28;20237;-77
2023/05/31 03:20:54;;;;;;;28.47;20.13;;;;;;;;;;5115102;28;20739;-77
2023/05/31 03:23:21;;;;;;;29.17;18.37;;;;;;;;;;5115578;27;20819;-77
2023/05/31 03:25:49;;;;;;;24.23;19.07;;;;;;;;;;5115279;28;20281;-76
2023/05/31 03:28:17;;;;;;;26.60;19.00;;;;;;;;;;5115112;28;20221;-77
2023/05/31 03:30:45;;;;;;;26.83;19.17;;;;;;;;;;5114705;28;20277;-77
2023/05/31 03:33:12;;;;;;;30.27;19.50;;;;;;;;;;5115027;28;20223;-77
2023/05/31 03:35:40;;;;;;;27.33;19.40;;;;;;;;;;5114874;28;20263;-76
2023/05/31 03:38:07;;;;;;;30.60;19.70;;;;;;;;;;5114569;28;20228;-76
2023/05/31 03:40:34;;;;;;;31.20;20.67;;;;;;;;;;5114968;28;20200;-77
2023/05/31 03:43:01;;;;;;;28.20;19.90;;;;;;;;;;5114600;28;20194;-77
2023/05/31 03:45:30;;;;;;;27.87;20.00;;;;;;;;;;5114636;28;20277;-77
2023/05/31 03:47:57;;;;;;;30.03;20.20;;;;;;;;;;5114753;28;20290;-76
2023/05/31 03:50:24;;;;;;;30.93;20.00;;;;;;;;;;5115232;28;20198;-75
2023/05/31 03:52:51;;;;;;;31.47;20.03;;;;;;;;;;5114368;28;20232;-77
2023/05/31 03:55:20;;;;;;;31.67;20.20;;;;;;;;;;5114665;28;20293;-77
2023/05/31 03:57:47;;;;;;;32.13;21.73;;;;;;;;;;5114054;28;20261;-77
2023/05/31 04:00:15;;;;;;;26.20;19.27;;;;;;;;;;5114249;28;20288;-76
2023/05/31 04:02:44;;;;;;;30.10;19.27;;;;;;;;;;5114339;28;20283;-77
2023/05/31 04:05:11;;;;;;;31.00;19.77;;;;;;;;;;5114357;28;20290;-76
2023/05/31 04:07:38;;;;;;;26.93;19.03;;;;;;;;;;5113670;28;20741;-77
2023/05/31 04:10:05;;;;;;;27.63;20.03;;;;;;;;;;5114145;28;20665;-77
2023/05/31 04:12:33;;;;;;;32.03;20.80;;;;;;;;;;5113994;28;20298;-76
2023/05/31 04:15:00;;;;;;;31.57;20.00;;;;;;;;;;5114261;28;20225;-77
2023/05/31 04:17:27;;;;;;;29.77;20.13;;;;;;;;;;5114001;28;20253;-77
2023/05/31 04:19:55;;;;;;;27.73;19.77;;;;;;;;;;5114194;27;20232;-77
2023/05/31 04:22:23;;;;;;;28.53;20.03;;;;;;;;;;5114186;28;20197;-76
2023/05/31 04:24:50;;;;;;;29.43;19.67;;;;;;;;;;5114342;28;20222;-77
2023/05/31 04:27:18;;;;;;;30.13;20.00;;;;;;;;;;5113523;28;20281;-77
2023/05/31 04:29:46;;;;;;;29.97;20.47;;;;;;;;;;5114180;28;20196;-77
2023/05/31 04:32:14;;;;;;;30.10;19.83;;;;;;;;;;5113977;28;20202;-77
2023/05/31 04:34:42;;;;;;;29.83;19.97;;;;;;;;;;5113991;28;20229;-78
2023/05/31 04:37:11;;;;;;;28.97;19.80;;;;;;;;;;5113848;28;20239;-75
2023/05/31 04:39:38;;;;;;;28.93;20.03;;;;;;;;;;5113921;28;20257;-77
2023/05/31 04:42:05;;;;;;;32.87;20.83;;;;;;;;;;5113042;28;20243;-77
2023/05/31 04:44:32;;;;;;;30.20;20.83;;;;;;;;;;5113443;28;20202;-77
2023/05/31 04:47:00;;;;;;;27.60;21.20;;;;;;;;;;5113443;28;20623;-78
2023/05/31 04:49:27;;;;;;;28.67;20.67;;;;;;;;;;5113379;28;20195;-76
2023/05/31 04:51:55;;;;;;;31.37;20.50;;;;;;;;;;5113311;28;20231;-77
2023/05/31 04:54:24;;;;;;;32.87;21.23;;;;;;;;;;5113332;28;20536;-77
2023/05/31 04:56:51;;;;;;;30.60;21.57;;;;;;;;;;5113130;28;20296;-76
2023/05/31 04:59:20;;;;;;;28.97;21.90;;;;;;;;;;5113300;28;20331;-77
2023/05/31 05:01:47;;;;;;;28.10;20.73;;;;;;;;;;5113289;28;20223;-77
2023/05/31 05:04:14;;;;;;;30.93;21.03;;;;;;;;;;5113284;28;20269;-78
2023/05/31 05:06:42;;;;;;;30.10;21.27;;;;;;;;;;5113055;28;20193;-79
2023/05/31 05:09:09;;;;;;;26.57;20.90;;;;;;;;;;5113579;28;20305;-78
2023/05/31 05:11:38;;;;;;;29.80;22.17;;;;;;;;;;5112829;28;20200;-79
2023/05/31 05:14:05;;;;;;;28.33;21.40;;;;;;;;;;5112693;27;20288;-79
2023/05/31 05:16:32;;;;;;;32.53;21.37;;;;;;;;;;5113073;28;20223;-79
2023/05/31 05:18:59;;;;;;;30.23;21.60;;;;;;;;;;5112089;28;20342;-79
2023/05/31 05:21:28;;;;;;;31.73;22.30;;;;;;;;;;5112718;28;20296;-79
2023/05/31 05:23:55;;;;;;;26.70;20.50;;;;;;;;;;5112886;28;20201;-78
2023/05/31 05:26:23;;;;;;;26.93;20.67;;;;;;;;;;5112035;28;20351;-79
2023/05/31 05:28:51;;;;;;;27.43;20.77;;;;;;;;;;5112906;28;20229;-79
2023/05/31 05:31:18;;;;;;;27.93;19.53;;;;;;;;;;5112497;28;20228;-78
2023/05/31 05:33:45;;;;;;;27.50;19.40;;;;;;;;;;5113064;28;20285;-76
2023/05/31 05:36:13;;;;;;;25.23;18.57;;;;;;;;;;5112525;28;20212;-79
2023/05/31 05:38:40;;;;;;;23.73;18.57;;;;;;;;;;5111106;28;20253;-77
2023/05/31 05:41:10;;;;;;;23.73;18.70;;;;;;;;;;5111400;28;20281;-77
2023/05/31 05:43:38;;;;;;;24.87;17.50;;;;;;;;;;5111003;28;20619;-78
2023/05/31 05:46:06;;;;;;;26.60;19.13;;;;;;;;;;5109786;27;20749;-76
2023/05/31 05:48:33;;;;;;;22.30;17.30;;;;;;;;;;5111927;28;20208;-78
2023/05/31 05:51:01;;;;;;;20.93;17.60;;;;;;;;;;5112364;28;20327;-77
2023/05/31 05:53:28;;;;;;;21.50;16.47;;;;;;;;;;5112183;28;20198;-77
2023/05/31 05:55:56;;;;;;;22.23;17.37;;;;;;;;;;5111409;28;20741;-78
2023/05/31 05:58:23;;;;;;;20.50;16.90;;;;;;;;;;5111896;28;20313;-77
2023/05/31 06:00:50;;;;;;;21.03;16.00;;;;;;;;;;5111820;28;20267;-78
2023/05/31 06:03:19;;;;;;;22.17;16.73;;;;;;;;;;5112370;28;20579;-75
2023/05/31 06:05:46;;;;;;;18.83;15.33;;;;;;;;;;5112355;28;20216;-78
2023/05/31 06:08:13;;;;;;;21.30;16.83;;;;;;;;;;5111499;28;20658;-78
2023/05/31 06:10:40;;;;;;;22.43;16.27;;;;;;;;;;5112106;28;20280;-78
2023/05/31 06:13:08;;;;;;;18.93;15.47;;;;;;;;;;5112096;28;20194;-78
2023/05/31 06:15:35;;;;;;;17.13;14.40;;;;;;;;;;5111800;28;20293;-77
2023/05/31 06:18:02;;;;;;;18.08;14.77;;;;;;;;;;5111915;28;20256;-78
2023/05/31 06:20:31;;;;;;;17.85;15.30;;;;;;;;;;5111751;28;20197;-77
2023/05/31 06:22:58;;;;;;;18.73;14.82;;;;;;;;;;5111264;28;20342;-77
2023/05/31 06:25:26;;;;;;;17.67;13.98;;;;;;;;;;5111770;28;20745;-77
2023/05/31 06:27:53;;;;;;;16.02;14.23;;;;;;;;;;5111960;28;20202;-77
2023/05/31 06:30:21;;;;;;;17.42;14.60;;;;;;;;;;5111646;28;20284;-77
2023/05/31 06:32:48;;;;;;;16.50;14.10;;;;;;;;;;5111750;28;20200;-78
2023/05/31 06:35:15;;;;;;;17.17;14.23;;;;;;;;;;5111618;28;20717;-77
2023/05/31 06:37:46;;;;;;;20.20;14.00;;;;;;;;;;5111371;28;20197;-78
2023/05/31 06:40:13;;;;;;;17.60;13.70;;;;;;;;;;5111336;28;20204;-78
2023/05/31 06:42:40;;;;;;;15.48;13.50;;;;;;;;;;5111990;28;20228;-78
2023/05/31 06:45:08;;;;;;;16.35;14.15;;;;;;;;;;5111631;28;20226;-76
2023/05/31 06:47:35;;;;;;;16.98;14.05;;;;;;;;;;5111537;28;20205;-77
2023/05/31 06:50:03;;;;;;;15.23;12.98;;;;;;;;;;5111875;28;20288;-76
2023/05/31 06:52:30;;;;;;;15.07;13.25;;;;;;;;;;5111369;28;20190;-77
2023/05/31 06:54:58;;;;;;;14.50;12.88;;;;;;;;;;5111580;28;20284;-78
2023/05/31 06:57:26;;;;;;;15.43;12.80;;;;;;;;;;5111339;28;20189;-77
2023/05/31 06:59:54;;;;;;;15.70;12.93;;;;;;;;;;5111299;28;20230;-77
2023/05/31 07:02:21;;;;;;;16.15;12.63;;;;;;;;;;5111518;28;20276;-78
2023/05/31 07:04:48;;;;;;;14.05;12.50;;;;;;;;;;5111794;28;20285;-76
2023/05/31 07:07:15;;;;;;;14.63;12.63;;;;;;;;;;5111118;28;20285;-77
2023/05/31 07:09:43;;;;;;;17.80;12.65;;;;;;;;;;5111525;28;20221;-78
2023/05/31 07:12:11;;;;;;;13.43;12.02;;;;;;;;;;5111404;28;20281;-78
2023/05/31 07:14:40;;;;;;;14.48;12.40;;;;;;;;;;5111611;28;20362;-79
2023/05/31 07:17:07;;;;;;;15.27;12.13;;;;;;;;;;5111667;28;20282;-79
2023/05/31 07:19:44;;;;;;;17.35;12.18;;;;;;;;;;5111393;28;20222;-79
2023/05/31 07:22:11;;;;;;;16.77;12.40;;;;;;;;;;5110843;28;20781;-78
2023/05/31 07:24:38;;;;;;;15.05;12.10;;;;;;;;;;5111096;28;20197;-78
2023/05/31 07:27:05;;;;;;;15.68;11.82;;;;;;;;;;5111573;28;20222;-77
2023/05/31 07:29:35;;;;;;;17.17;12.27;;;;;;;;;;5110978;28;20229;-76
2023/05/31 07:32:02;;;;;;;13.07;11.73;;;;;;;;;;5110814;28;20570;-78
2023/05/31 07:34:29;;;;;;;15.10;11.48;;;;;;;;;;5111500;28;20333;-78
2023/05/31 07:36:57;;;;;;;14.40;12.20;;;;;;;;;;5110762;28;20300;-77
2023/05/31 07:39:24;;;;;;;14.38;12.45;;;;;;;;;;5111244;28;20312;-77
2023/05/31 07:41:52;;;;;;;13.00;11.63;;;;;;;;;;5111721;28;20620;-78
2023/05/31 07:44:19;;;;;;;15.05;11.52;;;;;;;;;;5114741;28;20193;-78
2023/05/31 07:46:48;;;;;;;14.25;11.80;;;;;;;;;;5114675;28;20684;-78
2023/05/31 07:49:15;;;;;;;13.63;12.13;;;;;;;;;;5114744;28;20280;-78
2023/05/31 07:51:42;;;;;;;15.02;11.73;;;;;;;;;;5114648;28;20240;-78
2023/05/31 07:54:09;;;;;;;12.93;11.48;;;;;;;;;;5114401;28;21034;-78
2023/05/31 07:56:36;;;;;;;12.98;11.65;;;;;;;;;;5114612;28;20247;-79
2023/05/31 07:59:04;;;;;;;13.60;11.55;;;;;;;;;;5114774;28;20599;-79
2023/05/31 08:01:31;;;;;;;13.93;12.52;;;;;;;;;;5114388;28;20796;-78
2023/05/31 08:04:07;;;;;;;13.90;11.52;;;;;;;;;;5114224;28;20637;-79
2023/05/31 08:06:34;;;;;;;16.10;11.55;;;;;;;;;;5114388;28;20276;-80
2023/05/31 08:09:01;;;;;;;13.80;11.75;;;;;;;;;;5114061;28;20284;-78
2023/05/31 08:11:29;;;;;;;14.60;11.88;;;;;;;;;;5114340;28;20273;-79
2023/05/31 08:13:56;;;;;;;14.48;11.68;;;;;;;;;;5114034;28;20190;-78
2023/05/31 08:16:23;;;;;;;14.20;12.18;;;;;;;;;;5114328;28;20297;-79
2023/05/31 08:18:50;;;;;;;14.43;11.65;;;;;;;;;;5113937;28;20312;-78
2023/05/31 08:21:19;;;;;;;13.75;11.75;;;;;;;;;;5113891;28;20201;-78
2023/05/31 08:23:46;;;;;;;15.35;12.00;;;;;;;;;;5114453;28;20289;-79
2023/05/31 08:26:13;;;;;;;13.38;11.43;;;;;;;;;;5114534;28;20293;-79
2023/05/31 08:28:41;;;;;;;14.00;12.00;;;;;;;;;;5113773;28;20229;-80
2023/05/31 08:31:08;;;;;;;13.23;10.55;;;;;;;;;;5114400;28;20190;-78
2023/05/31 08:33:36;;;;;;;15.95;11.05;;;;;;;;;;5113670;28;20293;-79
2023/05/31 08:36:04;;;;;;;13.77;11.52;;;;;;;;;;5113343;28;20263;-78
2023/05/31 08:38:34;;;;;;;11.52;10.30;;;;;;;;;;5114334;28;20221;-78
2023/05/31 08:41:02;;;;;;;12.70;11.00;;;;;;;;;;5113932;28;20198;-78
2023/05/31 08:43:30;;;;;;;14.63;10.15;;;;;;;;;;5113441;28;20193;-78
2023/05/31 08:45:57;;;;;;;12.95;11.32;;;;;;;;;;5113430;28;20754;-77
2023/05/31 08:48:26;;;;;;;12.65;11.35;;;;;;;;;;5113468;28;20194;-78
2023/05/31 08:50:54;;;;;;;12.15;10.77;;;;;;;;;;5113866;28;20197;-79
2023/05/31 08:53:22;;;;;;;12.40;10.55;;;;;;;;;;5113299;28;20551;-79
2023/05/31 08:55:51;;;;;;;12.38;11.07;;;;;;;;;;5113492;28;20228;-79
2023/05/31 08:58:19;;;;;;;14.23;10.55;;;;;;;;;;5113097;28;20194;-79
2023/05/31 09:00:47;;;;;;;12.45;9.75;;;;;;;;;;5113185;28;20229;-80
2023/05/31 09:03:14;;;;;;;12.48;11.18;;;;;;;;;;5113331;28;20220;-79
2023/05/31 09:05:41;;;;;;;12.65;10.60;;;;;;;;;;5112847;28;20662;-81
2023/05/31 09:08:08;;;;;;;12.73;10.10;;;;;;;;;;5113050;28;20750;-79
2023/05/31 09:10:35;;;;;;;11.85;10.10;;;;;;;;;;5113520;28;20628;-78
2023/05/31 09:13:04;;;;;;;13.27;9.30;;;;;;;;;;5113287;28;20574;-79
2023/05/31 09:15:33;;;;;;;11.10;8.27;;;;;;;;;;5113047;28;20305;-78
2023/05/31 09:18:13;;;;;;;12.15;9.68;;;;;;;;;;5112546;28;20201;-79
2023/05/31 09:20:40;;;;;;;11.38;9.55;;;;;;;;;;5113015;28;20316;-81
2023/05/31 09:23:09;;;;;;;12.82;9.88;;;;;;;;;;5113250;28;20284;-80
2023/05/31 09:25:46;;;;;;;12.38;10.38;;;;;;;;;;5113343;28;20658;-79
2023/05/31 09:28:14;;;;;;;10.70;9.60;;;;;;;;;;5112791;27;20240;-79
2023/05/31 09:30:42;;;;;;;11.07;9.98;;;;;;;;;;5112797;28;20194;-79
2023/05/31 09:33:10;;;;;;;11.98;10.30;;;;;;;;;;5112386;28;20451;-78
2023/05/31 09:35:37;;;;;;;11.73;10.00;;;;;;;;;;5112580;28;20760;-80
2023/05/31 09:38:07;;;;;;;11.20;9.98;;;;;;;;;;5113090;28;20214;-80
2023/05/31 09:40:35;;;;;;;10.75;9.65;;;;;;;;;;5112213;28;20229;-80
2023/05/31 09:43:02;;;;;;;10.50;9.40;;;;;;;;;;5112571;28;20194;-80
2023/05/31 09:45:31;;;;;;;10.57;9.48;;;;;;;;;;5112876;28;20197;-79
2023/05/31 09:47:59;;;;;;;11.10;9.55;;;;;;;;;;5112014;28;20652;-80
2023/05/31 09:50:26;;;;;;;11.68;9.00;;;;;;;;;;5112675;28;20215;-79
2023/05/31 09:52:58;;;;;;;11.18;9.68;;;;;;;;;;5112461;28;20292;-79
2023/05/31 09:55:25;;;;;;;11.57;9.70;;;;;;;;;;5112313;28;20243;-79
2023/05/31 09:57:55;;;;;;;11.25;9.63;;;;;;;;;;5112344;28;20247;-80
2023/05/31 10:00:22;;;;;;;10.23;8.45;;;;;;;;;;5112081;28;20241;-81
2023/05/31 10:02:51;;;;;;;12.85;8.32;;;;;;;;;;5112262;28;20305;-80
2023/05/31 10:05:19;;;;;;;9.77;8.80;;;;;;;;;;5111609;28;20289;-80
2023/05/31 10:07:47;;;;;;;11.57;9.70;;;;;;;;;;5112418;28;20278;-80
2023/05/31 10:10:17;;;;;;;13.05;9.18;;;;;;;;;;5112018;28;20233;-78
2023/05/31 10:12:47;;;;;;;9.75;8.15;;;;;;;;;;5111974;28;20202;-80
2023/05/31 10:15:17;;;;;;;10.23;8.77;;;;;;;;;;5111385;28;20211;-79
2023/05/31 10:17:47;;;;;;;8.82;7.93;;;;;;;;;;5112217;28;20284;-80
2023/05/31 10:20:18;;;;;;;10.52;7.85;;;;;;;;;;5112235;28;20225;-80
2023/05/31 10:22:45;;;;;;;11.63;8.60;;;;;;;;;;5112101;28;20220;-78
2023/05/31 10:25:29;;;;;;;9.30;7.65;;;;;;;;;;5111817;28;20201;-80
2023/05/31 10:27:59;;;;;;;8.93;7.50;;;;;;;;;;5111909;28;20209;-79
2023/05/31 10:30:28;;;;;;;12.57;8.82;;;;;;;;;;5111273;28;20197;-80
2023/05/31 10:32:57;;;;;;;10.82;7.25;;;;;;;;;;5111656;28;20273;-81
2023/05/31 10:35:26;;;;;;;11.88;7.43;;;;;;;;;;5111891;28;20264;-78
2023/05/31 10:37:54;;;;;;;9.38;8.23;;;;;;;;;;5111802;28;20205;-79
2023/05/31 10:40:23;;;;;;;11.25;7.70;;;;;;;;;;5111934;28;20647;-80
2023/05/31 10:42:54;;;;;;;9.20;7.25;;;;;;;;;;5111400;28;20817;-80
2023/05/31 10:45:22;;;;;;;8.32;7.10;;;;;;;;;;5111867;28;20190;-80
2023/05/31 10:47:53;;;;;;;8.88;6.95;;;;;;;;;;5111460;28;20213;-80
2023/05/31 10:50:20;;;;;;;13.50;8.63;;;;;;;;;;5111691;28;20756;-80
2023/05/31 10:52:50;;;;;;;10.82;7.88;;;;;;;;;;5111295;28;20221;-80
2023/05/31 10:55:18;;;;;;;9.70;7.50;;;;;;;;;;5111259;28;20661;-80
2023/05/31 10:57:46;;;;;;;10.45;7.20;;;;;;;;;;5111740;28;20610;-80
2023/05/31 11:00:13;;;;;;;8.00;6.68;;;;;;;;;;5111199;28;20308;-80
2023/05/31 11:02:47;;;;;;;9.40;6.78;;;;;;;;;;5111162;28;20666;-80
2023/05/31 11:05:21;;;;;;;9.65;6.30;;;;;;;;;;5111380;28;20293;-80
2023/05/31 11:07:51;;;;;;;8.93;7.07;;;;;;;;;;5101144;28;20233;-78
2023/05/31 11:10:28;;;;;;;10.25;7.75;;;;;;;;;;5091307;28;20256;-81
2023/05/31 11:12:57;;;;;;;9.35;6.78;;;;;;;;;;5091086;28;20198;-81
2023/05/31 11:15:39;;;;;;;8.65;6.95;;;;;;;;;;5105583;28;20289;-81
2023/05/31 11:18:09;;;;;;;10.55;7.82;;;;;;;;;;5097587;28;20293;-80
2023/05/31 11:20:36;;;;;;;8.90;6.82;;;;;;;;;;5094710;28;20230;-81
2023/05/31 11:23:23;;;;;;;9.98;6.55;;;;;;;;;;5095560;28;20230;-81
2023/05/31 11:26:08;;;;;;;9.57;6.75;;;;;;;;;;5095272;28;20198;-81
2023/05/31 11:28:50;;;;;;;6.63;5.30;;;;;;;;;;5114947;28;20242;-78
2023/05/31 11:31:18;;;;;;;7.90;5.85;;;;;;;;;;5104597;28;20198;-79
2023/05/31 11:33:46;;;;;;;9.35;6.55;;;;;;;;;;5113085;28;20208;-81
2023/05/31 11:36:16;;;;;;;10.10;6.70;;;;;;;;;;5094952;28;20323;-80
2023/05/31 11:38:43;;;;;;;7.47;6.07;;;;;;;;;;5114337;28;20194;-79
2023/05/31 11:41:12;;;;;;;8.10;5.22;;;;;;;;;;5107512;28;20286;-78
2023/05/31 11:43:39;;;;;;;9.43;5.38;;;;;;;;;;5114285;28;20194;-79
2023/05/31 11:46:06;;;;;;;8.48;5.45;;;;;;;;;;5114433;28;20206;-80
2023/05/31 11:48:40;;;;;;;8.43;6.40;;;;;;;;;;5115154;28;20281;-80
2023/05/31 11:51:07;;;;;;;8.05;6.00;;;;;;;;;;5114545;28;20205;-79
2023/05/31 11:53:34;;;;;;;5.50;4.78;;;;;;;;;;5114429;28;20622;-79
2023/05/31 11:56:01;;;;;;;8.50;4.63;;;;;;;;;;5114637;28;20197;-79
2023/05/31 11:58:30;;;;;;;10.35;5.38;;;;;;;;;;5130559;27;20235;-79
2023/05/31 12:01:01;;;;;;;8.15;5.40;;;;;;;;;;5114493;28;20230;-80
2023/05/31 12:03:30;;;;;;;8.82;5.18;;;;;;;;;;5112255;28;20214;-78
2023/05/31 12:05:58;;;;;;;9.55;5.75;;;;;;;;;;5112172;28;20200;-79
2023/05/31 12:08:28;;;;;;;8.32;5.70;;;;;;;;;;5114142;28;20229;-80
2023/05/31 12:10:55;;;;;;;15.20;5.85;;;;;;;;;;5110745;28;20202;-80
2023/05/31 12:13:22;;;;;;;6.10;5.35;;;;;;;;;;5100899;28;20289;-80
2023/05/31 12:15:55;;;;;;;8.68;5.07;;;;;;;;;;5111263;28;20281;-79
2023/05/31 12:18:23;;;;;;;7.40;5.20;;;;;;;;;;5101953;28;20198;-79
2023/05/31 12:20:50;;;;;;;6.28;4.68;;;;;;;;;;5101666;28;20222;-80
2023/05/31 12:23:19;;;;;;;6.18;5.57;;;;;;;;;;5111514;28;20209;-78
2023/05/31 12:25:47;;;;;;;8.40;5.97;;;;;;;;;;5099986;28;20281;-77
2023/05/31 12:28:14;;;;;;;6.25;5.65;;;;;;;;;;5102809;28;20225;-79
2023/05/31 12:30:46;;;;;;;6.70;5.25;;;;;;;;;;5101185;28;20201;-79
2023/05/31 12:33:15;;;;;;;7.88;5.05;;;;;;;;;;5094136;28;20295;-79
2023/05/31 12:35:43;;;;;;;9.30;5.57;;;;;;;;;;5105301;28;20234;-78
2023/05/31 12:38:11;;;;;;;6.93;4.90;;;;;;;;;;5096239;28;20245;-78
2023/05/31 12:40:43;;;;;;;6.78;5.05;;;;;;;;;;5114498;28;20308;-79
2023/05/31 12:43:10;;;;;;;7.55;5.22;;;;;;;;;;5115169;28;20693;-79
2023/05/31 12:45:41;;;;;;;6.68;4.50;;;;;;;;;;5114917;28;20224;-79
2023/05/31 12:48:10;;;;;;;6.10;4.50;;;;;;;;;;5115357;27;20202;-79
2023/05/31 12:50:38;;;;;;;6.75;4.22;;;;;;;;;;5114568;28;20225;-78
2023/05/31 12:53:08;;;;;;;7.28;4.10;;;;;;;;;;5113003;28;20228;-79
2023/05/31 12:55:35;;;;;;;7.45;4.30;;;;;;;;;;5118236;27;20202;-79
2023/05/31 12:58:03;;;;;;;5.88;4.15;;;;;;;;;;5113767;28;20194;-80
2023/05/31 13:00:30;;;;;;;5.90;4.75;;;;;;;;;;5110224;27;20301;-79
2023/05/31 13:02:57;;;;;;;7.38;4.88;;;;;;;;;;5113354;28;20731;-79
2023/05/31 13:05:26;;;;;;;5.53;4.50;;;;;;;;;;5114429;28;20269;-79
2023/05/31 13:07:55;;;;;;;6.80;4.38;;;;;;;;;;5114130;28;20236;-79
2023/05/31 13:10:22;;;;;;;4.32;3.70;;;;;;;;;;5102322;27;20225;-78
2023/05/31 13:12:49;;;;;;;5.28;3.55;;;;;;;;;;5124342;27;20741;-78
2023/05/31 13:15:17;;;;;;;4.70;3.63;;;;;;;;;;5121063;27;20288;-78
2023/05/31 13:17:44;;;;;;;5.30;3.60;;;;;;;;;;5121512;27;20213;-79
2023/05/31 13:20:13;;;;;;;7.13;3.72;;;;;;;;;;5112290;28;20336;-79
2023/05/31 13:22:41;;;;;;;5.70;4.22;;;;;;;;;;5115543;27;20190;-78
2023/05/31 13:25:10;;;;;;;6.88;3.83;;;;;;;;;;5113718;27;20633;-77
2023/05/31 13:27:39;;;;;;;3.80;3.40;;;;;;;;;;5111923;28;20194;-78
2023/05/31 13:30:07;;;;;;;5.78;3.70;;;;;;;;;;5111354;28;20201;-79
2023/05/31 13:32:35;;;;;;;6.15;4.00;;;;;;;;;;5111595;28;20190;-78
2023/05/31 13:35:04;;;;;;;4.43;3.58;;;;;;;;;;5113217;27;20219;-79
2023/05/31 13:37:31;;;;;;;7.15;3.50;;;;;;;;;;5115966;27;20672;-78
2023/05/31 13:39:58;;;;;;;5.60;3.70;;;;;;;;;;5120297;27;20198;-78
2023/05/31 13:42:27;;;;;;;4.78;3.85;;;;;;;;;;5111703;28;20280;-79
2023/05/31 13:44:54;;;;;;;5.53;3.75;;;;;;;;;;5111426;28;20281;-78
2023/05/31 13:47:21;;;;;;;5.13;3.60;;;;;;;;;;5111383;28;20372;-78
2023/05/31 13:49:49;;;;;;;5.78;3.83;;;;;;;;;;5111730;28;20288;-79
2023/05/31 13:52:16;;;;;;;6.78;3.85;;;;;;;;;;5108241;28;20186;-77
2023/05/31 13:54:43;;;;;;;6.03;3.88;;;;;;;;;;5111218;28;20690;-79
2023/05/31 13:57:10;;;;;;;5.80;4.10;;;;;;;;;;5111715;27;20288;-78
2023/05/31 13:59:39;;;;;;;5.63;4.20;;;;;;;;;;5111224;28;20276;-78
2023/05/31 14:02:07;;;;;;;6.25;3.80;;;;;;;;;;5111168;28;20253;-78
2023/05/31 14:04:34;;;;;;;6.82;3.97;;;;;;;;;;5110839;28;20616;-77
2023/05/31 14:07:03;;;;;;;6.60;3.90;;;;;;;;;;5110447;28;20190;-77
2023/05/31 14:09:30;;;;;;;8.77;4.05;;;;;;;;;;5110735;27;20201;-77
2023/05/31 14:11:58;;;;;;;5.65;4.22;;;;;;;;;;5111072;28;20276;-78
2023/05/31 14:14:26;;;;;;;7.25;3.90;;;;;;;;;;5111026;27;20280;-78
2023/05/31 14:16:54;;;;;;;5.15;3.80;;;;;;;;;;5110398;28;20247;-79
2023/05/31 14:19:22;;;;;;;5.88;4.40;;;;;;;;;;5110516;28;20224;-77
2023/05/31 14:21:49;;;;;;;9.38;4.13;;;;;;;;;;5110910;28;20592;-77
2023/05/31 14:24:16;;;;;;;5.68;3.85;;;;;;;;;;5108429;28;20280;-77
2023/05/31 14:26:43;;;;;;;6.35;3.85;;;;;;;;;;5104341;28;20658;-77
2023/05/31 14:29:10;;;;;;;4.35;3.80;;;;;;;;;;5111320;28;20193;-78
2023/05/31 14:31:37;;;;;;;4.15;3.60;;;;;;;;;;5119523;27;20321;-77